Spinnerstown, Pennsylvania
Current Conditions -  °F | °C
As of 1:15 PM on Monday 22 Dec 2014 (Local Time) from KUKT Reporting Station
Overcast Overcast  
Wind Chill: 36°   Ceiling: 1700
Heat Index: 39°   Visibility: 10mi
Dew Point: 32°   Wind: 5mph
Humidity: 75%   Direction: 90°E
Pressure: 30.23"   Gusts: NA
Location:  40.44°N, 75.44°W
Report Text: KUKT 221815Z AUTO 09004KT 10SM OVC017 04/00 A3023 RMK AO1
Loading
Personal Weather Stations






























Interactive Weather Map New forecast layout! Learn more

10-Day Weather Forecast

Advertisements
Track Severe Weather on mobile